sensor_id;sensor_type;location;lat;lon;timestamp;P1;durP1;ratioP1;P2;durP2;ratioP2
15669;SDS011;18524;45.190;5.732;2022-10-17T00:03:08;4.87;;;2.90;;
15669;SDS011;18524;45.190;5.732;2022-10-17T00:07:59;3.53;;;3.10;;
15669;SDS011;18524;45.190;5.732;2022-10-17T00:12:50;3.67;;;3.00;;
15669;SDS011;18524;45.190;5.732;2022-10-17T00:17:41;3.43;;;3.00;;
15669;SDS011;18524;45.190;5.732;2022-10-17T00:22:31;3.13;;;2.80;;
15669;SDS011;18524;45.190;5.732;2022-10-17T00:27:22;4.40;;;3.03;;
15669;SDS011;18524;45.190;5.732;2022-10-17T00:32:12;2.87;;;2.67;;
15669;SDS011;18524;45.190;5.732;2022-10-17T00:37:02;5.10;;;3.17;;
15669;SDS011;18524;45.190;5.732;2022-10-17T00:41:53;4.33;;;3.10;;
15669;SDS011;18524;45.190;5.732;2022-10-17T00:46:43;4.27;;;3.00;;
15669;SDS011;18524;45.190;5.732;2022-10-17T00:51:53;4.27;;;3.40;;
15669;SDS011;18524;45.190;5.732;2022-10-17T00:57:04;6.03;;;3.50;;
15669;SDS011;18524;45.190;5.732;2022-10-17T01:02:17;4.07;;;2.90;;
15669;SDS011;18524;45.190;5.732;2022-10-17T01:07:07;4.87;;;3.10;;
15669;SDS011;18524;45.190;5.732;2022-10-17T01:17:12;4.17;;;3.03;;
15669;SDS011;18524;45.190;5.732;2022-10-17T01:22:17;3.97;;;3.47;;
15669;SDS011;18524;45.190;5.732;2022-10-17T01:32:46;5.50;;;3.30;;
15669;SDS011;18524;45.190;5.732;2022-10-17T01:43:01;5.27;;;3.60;;
15669;SDS011;18524;45.190;5.732;2022-10-17T01:47:57;4.57;;;3.57;;
15669;SDS011;18524;45.190;5.732;2022-10-17T01:52:52;3.57;;;3.07;;
15669;SDS011;18524;45.190;5.732;2022-10-17T01:57:48;5.17;;;3.83;;
15669;SDS011;18524;45.190;5.732;2022-10-17T02:02:43;3.90;;;3.50;;
15669;SDS011;18524;45.190;5.732;2022-10-17T02:07:38;4.47;;;3.97;;
15669;SDS011;18524;45.190;5.732;2022-10-17T02:22:48;3.93;;;3.50;;
15669;SDS011;18524;45.190;5.732;2022-10-17T02:32:49;5.27;;;3.60;;
15669;SDS011;18524;45.190;5.732;2022-10-17T02:37:47;5.73;;;3.60;;
15669;SDS011;18524;45.190;5.732;2022-10-17T02:42:39;5.53;;;3.70;;
15669;SDS011;18524;45.190;5.732;2022-10-17T02:47:35;6.30;;;3.87;;
15669;SDS011;18524;45.190;5.732;2022-10-17T02:57:27;4.87;;;3.80;;
15669;SDS011;18524;45.190;5.732;2022-10-17T03:02:23;4.77;;;3.73;;
15669;SDS011;18524;45.190;5.732;2022-10-17T03:07:13;4.53;;;3.83;;
15669;SDS011;18524;45.190;5.732;2022-10-17T03:12:04;4.27;;;3.80;;
15669;SDS011;18524;45.190;5.732;2022-10-17T03:16:54;5.00;;;3.93;;
15669;SDS011;18524;45.190;5.732;2022-10-17T03:21:45;5.30;;;4.00;;
15669;SDS011;18524;45.190;5.732;2022-10-17T03:26:35;4.67;;;4.10;;
15669;SDS011;18524;45.190;5.732;2022-10-17T03:31:25;6.47;;;4.00;;
15669;SDS011;18524;45.190;5.732;2022-10-17T03:36:16;5.67;;;3.87;;
15669;SDS011;18524;45.190;5.732;2022-10-17T03:41:08;7.33;;;4.37;;
15669;SDS011;18524;45.190;5.732;2022-10-17T03:45:59;7.10;;;3.77;;
15669;SDS011;18524;45.190;5.732;2022-10-17T03:50:50;5.13;;;3.73;;
15669;SDS011;18524;45.190;5.732;2022-10-17T03:55:41;6.10;;;4.20;;
15669;SDS011;18524;45.190;5.732;2022-10-17T04:00:32;7.33;;;6.10;;
15669;SDS011;18524;45.190;5.732;2022-10-17T04:05:25;7.30;;;6.60;;
15669;SDS011;18524;45.190;5.732;2022-10-17T04:10:15;8.23;;;6.40;;
15669;SDS011;18524;45.190;5.732;2022-10-17T04:15:06;5.57;;;5.07;;
15669;SDS011;18524;45.190;5.732;2022-10-17T04:19:57;11.07;;;10.03;;
15669;SDS011;18524;45.190;5.732;2022-10-17T04:24:48;6.53;;;5.87;;
15669;SDS011;18524;45.190;5.732;2022-10-17T04:29:38;6.90;;;6.20;;
15669;SDS011;18524;45.190;5.732;2022-10-17T04:34:29;8.30;;;7.50;;
15669;SDS011;18524;45.190;5.732;2022-10-17T04:39:20;9.37;;;8.30;;
15669;SDS011;18524;45.190;5.732;2022-10-17T04:44:10;6.60;;;6.00;;
15669;SDS011;18524;45.190;5.732;2022-10-17T04:49:01;6.80;;;6.20;;
15669;SDS011;18524;45.190;5.732;2022-10-17T04:53:51;15.27;;;13.67;;
15669;SDS011;18524;45.190;5.732;2022-10-17T04:58:42;20.47;;;18.57;;
15669;SDS011;18524;45.190;5.732;2022-10-17T05:03:33;17.27;;;15.47;;
15669;SDS011;18524;45.190;5.732;2022-10-17T05:08:24;22.77;;;20.47;;
15669;SDS011;18524;45.190;5.732;2022-10-17T05:13:14;18.33;;;16.43;;
15669;SDS011;18524;45.190;5.732;2022-10-17T05:18:05;17.00;;;15.23;;
15669;SDS011;18524;45.190;5.732;2022-10-17T05:22:59;16.23;;;14.63;;
15669;SDS011;18524;45.190;5.732;2022-10-17T05:27:49;18.80;;;14.93;;
15669;SDS011;18524;45.190;5.732;2022-10-17T05:32:40;14.77;;;13.37;;
15669;SDS011;18524;45.190;5.732;2022-10-17T05:37:30;13.97;;;10.67;;
15669;SDS011;18524;45.190;5.732;2022-10-17T05:42:21;13.10;;;11.67;;
15669;SDS011;18524;45.190;5.732;2022-10-17T05:47:11;13.97;;;10.17;;
15669;SDS011;18524;45.190;5.732;2022-10-17T05:52:01;11.53;;;8.90;;
15669;SDS011;18524;45.190;5.732;2022-10-17T05:56:52;12.63;;;9.00;;
15669;SDS011;18524;45.190;5.732;2022-10-17T06:01:44;9.73;;;7.20;;
15669;SDS011;18524;45.190;5.732;2022-10-17T06:06:37;18.13;;;10.80;;
15669;SDS011;18524;45.190;5.732;2022-10-17T06:11:29;8.50;;;6.77;;
15669;SDS011;18524;45.190;5.732;2022-10-17T06:16:19;8.40;;;6.20;;
15669;SDS011;18524;45.190;5.732;2022-10-17T06:21:10;10.50;;;5.57;;
15669;SDS011;18524;45.190;5.732;2022-10-17T06:26:04;7.67;;;6.93;;
15669;SDS011;18524;45.190;5.732;2022-10-17T06:30:55;7.43;;;6.07;;
15669;SDS011;18524;45.190;5.732;2022-10-17T06:35:49;7.07;;;5.70;;
15669;SDS011;18524;45.190;5.732;2022-10-17T06:40:41;7.93;;;6.17;;
15669;SDS011;18524;45.190;5.732;2022-10-17T06:45:31;6.13;;;5.57;;
15669;SDS011;18524;45.190;5.732;2022-10-17T06:50:22;9.50;;;6.10;;
15669;SDS011;18524;45.190;5.732;2022-10-17T06:55:12;16.03;;;12.73;;
15669;SDS011;18524;45.190;5.732;2022-10-17T07:00:03;8.53;;;6.83;;
15669;SDS011;18524;45.190;5.732;2022-10-17T07:04:55;9.93;;;6.17;;
15669;SDS011;18524;45.190;5.732;2022-10-17T07:09:45;11.20;;;5.77;;
15669;SDS011;18524;45.190;5.732;2022-10-17T07:14:36;7.00;;;5.03;;
15669;SDS011;18524;45.190;5.732;2022-10-17T07:19:26;7.97;;;5.40;;
15669;SDS011;18524;45.190;5.732;2022-10-17T07:24:16;8.67;;;6.00;;
15669;SDS011;18524;45.190;5.732;2022-10-17T07:29:07;8.77;;;5.77;;
15669;SDS011;18524;45.190;5.732;2022-10-17T07:33:58;5.00;;;4.50;;
15669;SDS011;18524;45.190;5.732;2022-10-17T07:38:49;7.47;;;4.43;;
15669;SDS011;18524;45.190;5.732;2022-10-17T07:43:39;5.57;;;4.07;;
15669;SDS011;18524;45.190;5.732;2022-10-17T07:48:31;5.50;;;4.50;;
15669;SDS011;18524;45.190;5.732;2022-10-17T07:53:22;7.77;;;4.90;;
15669;SDS011;18524;45.190;5.732;2022-10-17T07:58:12;6.97;;;4.90;;
15669;SDS011;18524;45.190;5.732;2022-10-17T08:03:03;9.97;;;5.93;;
15669;SDS011;18524;45.190;5.732;2022-10-17T08:07:55;7.03;;;4.70;;
15669;SDS011;18524;45.190;5.732;2022-10-17T08:12:45;7.43;;;4.97;;
15669;SDS011;18524;45.190;5.732;2022-10-17T08:17:36;7.23;;;4.67;;
15669;SDS011;18524;45.190;5.732;2022-10-17T08:22:27;6.83;;;5.03;;
15669;SDS011;18524;45.190;5.732;2022-10-17T08:27:18;10.20;;;5.00;;
15669;SDS011;18524;45.190;5.732;2022-10-17T08:32:13;9.07;;;5.23;;
15669;SDS011;18524;45.190;5.732;2022-10-17T08:37:03;9.33;;;5.70;;
15669;SDS011;18524;45.190;5.732;2022-10-17T08:46:54;8.53;;;5.00;;
15669;SDS011;18524;45.190;5.732;2022-10-17T08:51:49;11.30;;;5.80;;
15669;SDS011;18524;45.190;5.732;2022-10-17T08:56:45;9.63;;;4.83;;
15669;SDS011;18524;45.190;5.732;2022-10-17T09:01:41;7.70;;;4.20;;
15669;SDS011;18524;45.190;5.732;2022-10-17T09:06:36;4.30;;;3.90;;
15669;SDS011;18524;45.190;5.732;2022-10-17T09:17:05;6.53;;;4.13;;
15669;SDS011;18524;45.190;5.732;2022-10-17T09:22:19;8.87;;;3.90;;
15669;SDS011;18524;45.190;5.732;2022-10-17T09:28:14;5.53;;;4.00;;
15669;SDS011;18524;45.190;5.732;2022-10-17T09:32:37;6.57;;;4.00;;
15669;SDS011;18524;45.190;5.732;2022-10-17T09:37:28;12.00;;;4.50;;
15669;SDS011;18524;45.190;5.732;2022-10-17T09:42:22;8.27;;;4.50;;
15669;SDS011;18524;45.190;5.732;2022-10-17T09:47:28;12.67;;;5.40;;
15669;SDS011;18524;45.190;5.732;2022-10-17T09:52:38;8.73;;;4.83;;
15669;SDS011;18524;45.190;5.732;2022-10-17T09:58:13;9.77;;;4.30;;
15669;SDS011;18524;45.190;5.732;2022-10-17T10:02:48;5.97;;;3.50;;
15669;SDS011;18524;45.190;5.732;2022-10-17T10:07:38;4.97;;;3.63;;
15669;SDS011;18524;45.190;5.732;2022-10-17T10:12:30;6.33;;;4.10;;
15669;SDS011;18524;45.190;5.732;2022-10-17T10:17:27;9.30;;;4.17;;
15669;SDS011;18524;45.190;5.732;2022-10-17T10:22:23;9.97;;;4.57;;
15669;SDS011;18524;45.190;5.732;2022-10-17T10:27:15;9.23;;;5.00;;
15669;SDS011;18524;45.190;5.732;2022-10-17T10:37:18;9.00;;;5.00;;
15669;SDS011;18524;45.190;5.732;2022-10-17T10:42:34;7.47;;;4.70;;
15669;SDS011;18524;45.190;5.732;2022-10-17T10:47:25;11.80;;;5.43;;
15669;SDS011;18524;45.190;5.732;2022-10-17T10:52:22;7.33;;;5.00;;
15669;SDS011;18524;45.190;5.732;2022-10-17T10:57:19;5.00;;;4.20;;
15669;SDS011;18524;45.190;5.732;2022-10-17T11:02:18;6.53;;;4.23;;
15669;SDS011;18524;45.190;5.732;2022-10-17T11:12:23;7.97;;;4.70;;
15669;SDS011;18524;45.190;5.732;2022-10-17T11:17:23;7.53;;;4.10;;
15669;SDS011;18524;45.190;5.732;2022-10-17T11:22:25;6.20;;;3.70;;
15669;SDS011;18524;45.190;5.732;2022-10-17T11:27:20;6.00;;;3.90;;
15669;SDS011;18524;45.190;5.732;2022-10-17T11:32:12;7.63;;;4.80;;
15669;SDS011;18524;45.190;5.732;2022-10-17T11:37:40;5.37;;;3.50;;
15669;SDS011;18524;45.190;5.732;2022-10-17T11:42:33;4.33;;;3.33;;
15669;SDS011;18524;45.190;5.732;2022-10-17T11:47:33;6.07;;;3.90;;
15669;SDS011;18524;45.190;5.732;2022-10-17T11:52:41;5.27;;;3.90;;
15669;SDS011;18524;45.190;5.732;2022-10-17T12:02:59;3.23;;;2.80;;
15669;SDS011;18524;45.190;5.732;2022-10-17T12:08:27;7.87;;;5.27;;
15669;SDS011;18524;45.190;5.732;2022-10-17T12:18:17;4.77;;;3.57;;
15669;SDS011;18524;45.190;5.732;2022-10-17T12:42:47;5.03;;;3.63;;
15669;SDS011;18524;45.190;5.732;2022-10-17T12:47:39;4.93;;;3.20;;
15669;SDS011;18524;45.190;5.732;2022-10-17T13:02:39;5.40;;;3.60;;
15669;SDS011;18524;45.190;5.732;2022-10-17T13:07:30;5.77;;;3.30;;
15669;SDS011;18524;45.190;5.732;2022-10-17T13:12:24;5.03;;;3.50;;
15669;SDS011;18524;45.190;5.732;2022-10-17T13:17:23;5.37;;;3.30;;
15669;SDS011;18524;45.190;5.732;2022-10-17T13:22:20;4.83;;;3.30;;
15669;SDS011;18524;45.190;5.732;2022-10-17T13:27:23;4.13;;;3.00;;
15669;SDS011;18524;45.190;5.732;2022-10-17T13:32:16;4.93;;;3.03;;
15669;SDS011;18524;45.190;5.732;2022-10-17T13:37:09;7.73;;;3.30;;
15669;SDS011;18524;45.190;5.732;2022-10-17T13:42:03;5.20;;;3.50;;
15669;SDS011;18524;45.190;5.732;2022-10-17T13:46:54;4.10;;;3.47;;
15669;SDS011;18524;45.190;5.732;2022-10-17T13:51:46;5.10;;;2.97;;
15669;SDS011;18524;45.190;5.732;2022-10-17T13:56:38;5.00;;;3.60;;
15669;SDS011;18524;45.190;5.732;2022-10-17T14:01:29;5.97;;;3.50;;
15669;SDS011;18524;45.190;5.732;2022-10-17T14:11:17;6.77;;;3.87;;
15669;SDS011;18524;45.190;5.732;2022-10-17T14:16:14;6.47;;;3.67;;
15669;SDS011;18524;45.190;5.732;2022-10-17T14:21:05;5.87;;;3.63;;
15669;SDS011;18524;45.190;5.732;2022-10-17T14:26:07;4.50;;;4.10;;
15669;SDS011;18524;45.190;5.732;2022-10-17T14:31:15;7.07;;;3.80;;
15669;SDS011;18524;45.190;5.732;2022-10-17T14:36:09;4.10;;;3.37;;
15669;SDS011;18524;45.190;5.732;2022-10-17T14:41:02;7.83;;;3.60;;
15669;SDS011;18524;45.190;5.732;2022-10-17T14:45:55;7.37;;;3.63;;
15669;SDS011;18524;45.190;5.732;2022-10-17T14:56:02;4.43;;;3.83;;
15669;SDS011;18524;45.190;5.732;2022-10-17T15:01:09;5.30;;;4.37;;
15669;SDS011;18524;45.190;5.732;2022-10-17T15:06:08;5.03;;;3.80;;
15669;SDS011;18524;45.190;5.732;2022-10-17T15:11:09;5.07;;;3.67;;
15669;SDS011;18524;45.190;5.732;2022-10-17T15:16:00;7.37;;;3.80;;
15669;SDS011;18524;45.190;5.732;2022-10-17T15:20:51;5.30;;;4.37;;
15669;SDS011;18524;45.190;5.732;2022-10-17T15:25:41;4.63;;;3.87;;
15669;SDS011;18524;45.190;5.732;2022-10-17T15:30:33;6.20;;;4.50;;
15669;SDS011;18524;45.190;5.732;2022-10-17T15:35:25;5.07;;;4.00;;
15669;SDS011;18524;45.190;5.732;2022-10-17T15:45:13;5.17;;;3.97;;
15669;SDS011;18524;45.190;5.732;2022-10-17T15:50:05;7.23;;;4.30;;
15669;SDS011;18524;45.190;5.732;2022-10-17T15:54:57;6.87;;;4.63;;
15669;SDS011;18524;45.190;5.732;2022-10-17T15:59:48;5.70;;;4.50;;
15669;SDS011;18524;45.190;5.732;2022-10-17T16:04:39;8.37;;;4.43;;
15669;SDS011;18524;45.190;5.732;2022-10-17T16:09:30;8.77;;;4.70;;
15669;SDS011;18524;45.190;5.732;2022-10-17T16:14:21;6.50;;;4.67;;
15669;SDS011;18524;45.190;5.732;2022-10-17T16:19:11;5.20;;;4.60;;
15669;SDS011;18524;45.190;5.732;2022-10-17T16:24:02;5.33;;;4.80;;
15669;SDS011;18524;45.190;5.732;2022-10-17T16:28:53;5.17;;;4.40;;
15669;SDS011;18524;45.190;5.732;2022-10-17T16:33:47;5.10;;;4.40;;
15669;SDS011;18524;45.190;5.732;2022-10-17T16:38:39;4.90;;;4.50;;
15669;SDS011;18524;45.190;5.732;2022-10-17T16:43:29;5.27;;;4.77;;
15669;SDS011;18524;45.190;5.732;2022-10-17T16:48:24;5.30;;;4.80;;
15669;SDS011;18524;45.190;5.732;2022-10-17T16:53:15;5.30;;;4.20;;
15669;SDS011;18524;45.190;5.732;2022-10-17T16:58:05;5.60;;;4.60;;
15669;SDS011;18524;45.190;5.732;2022-10-17T17:02:55;4.90;;;4.40;;
15669;SDS011;18524;45.190;5.732;2022-10-17T17:07:46;5.73;;;4.37;;
15669;SDS011;18524;45.190;5.732;2022-10-17T17:12:36;5.63;;;4.40;;
15669;SDS011;18524;45.190;5.732;2022-10-17T17:17:27;7.07;;;4.40;;
15669;SDS011;18524;45.190;5.732;2022-10-17T17:22:17;4.80;;;4.30;;
15669;SDS011;18524;45.190;5.732;2022-10-17T17:27:08;4.90;;;4.40;;
15669;SDS011;18524;45.190;5.732;2022-10-17T17:31:58;7.40;;;4.83;;
15669;SDS011;18524;45.190;5.732;2022-10-17T17:36:49;5.93;;;5.43;;
15669;SDS011;18524;45.190;5.732;2022-10-17T17:41:39;5.40;;;4.83;;
15669;SDS011;18524;45.190;5.732;2022-10-17T17:46:31;6.00;;;5.40;;
15669;SDS011;18524;45.190;5.732;2022-10-17T17:51:23;8.50;;;5.53;;
15669;SDS011;18524;45.190;5.732;2022-10-17T17:56:15;7.90;;;5.63;;
15669;SDS011;18524;45.190;5.732;2022-10-17T18:01:08;6.80;;;5.90;;
15669;SDS011;18524;45.190;5.732;2022-10-17T18:05:59;7.40;;;6.13;;
15669;SDS011;18524;45.190;5.732;2022-10-17T18:10:50;7.80;;;6.50;;
15669;SDS011;18524;45.190;5.732;2022-10-17T18:15:43;6.73;;;5.83;;
15669;SDS011;18524;45.190;5.732;2022-10-17T18:20:33;7.17;;;5.70;;
15669;SDS011;18524;45.190;5.732;2022-10-17T18:25:28;7.73;;;5.73;;
15669;SDS011;18524;45.190;5.732;2022-10-17T18:30:18;9.73;;;6.80;;
15669;SDS011;18524;45.190;5.732;2022-10-17T18:35:08;8.80;;;6.37;;
15669;SDS011;18524;45.190;5.732;2022-10-17T18:39:59;11.90;;;7.20;;
15669;SDS011;18524;45.190;5.732;2022-10-17T18:44:51;7.43;;;6.67;;
15669;SDS011;18524;45.190;5.732;2022-10-17T18:49:42;10.60;;;6.50;;
15669;SDS011;18524;45.190;5.732;2022-10-17T18:54:32;7.87;;;6.33;;
15669;SDS011;18524;45.190;5.732;2022-10-17T18:59:23;9.30;;;6.87;;
15669;SDS011;18524;45.190;5.732;2022-10-17T19:04:14;8.47;;;6.90;;
15669;SDS011;18524;45.190;5.732;2022-10-17T19:09:05;7.97;;;6.00;;
15669;SDS011;18524;45.190;5.732;2022-10-17T19:13:58;7.77;;;6.43;;
15669;SDS011;18524;45.190;5.732;2022-10-17T19:18:51;7.33;;;6.63;;
15669;SDS011;18524;45.190;5.732;2022-10-17T19:23:47;10.80;;;7.40;;
15669;SDS011;18524;45.190;5.732;2022-10-17T19:28:39;8.13;;;7.23;;
15669;SDS011;18524;45.190;5.732;2022-10-17T19:33:33;9.67;;;7.70;;
15669;SDS011;18524;45.190;5.732;2022-10-17T19:38:24;11.67;;;7.90;;
15669;SDS011;18524;45.190;5.732;2022-10-17T19:43:15;9.30;;;8.10;;
15669;SDS011;18524;45.190;5.732;2022-10-17T19:48:05;9.77;;;8.07;;
15669;SDS011;18524;45.190;5.732;2022-10-17T19:52:56;8.53;;;7.40;;
15669;SDS011;18524;45.190;5.732;2022-10-17T19:57:46;8.70;;;6.63;;
15669;SDS011;18524;45.190;5.732;2022-10-17T20:02:37;6.87;;;6.00;;
15669;SDS011;18524;45.190;5.732;2022-10-17T20:07:27;8.83;;;6.70;;
15669;SDS011;18524;45.190;5.732;2022-10-17T20:12:17;7.87;;;7.10;;
15669;SDS011;18524;45.190;5.732;2022-10-17T20:17:08;8.37;;;7.00;;
15669;SDS011;18524;45.190;5.732;2022-10-17T20:21:58;7.93;;;7.10;;
15669;SDS011;18524;45.190;5.732;2022-10-17T20:26:49;8.30;;;6.47;;
15669;SDS011;18524;45.190;5.732;2022-10-17T20:31:40;8.40;;;6.77;;
15669;SDS011;18524;45.190;5.732;2022-10-17T20:36:31;7.70;;;6.70;;
15669;SDS011;18524;45.190;5.732;2022-10-17T20:41:25;8.47;;;6.30;;
15669;SDS011;18524;45.190;5.732;2022-10-17T20:46:17;8.57;;;6.63;;
15669;SDS011;18524;45.190;5.732;2022-10-17T20:51:08;8.90;;;6.23;;
15669;SDS011;18524;45.190;5.732;2022-10-17T20:56:12;8.93;;;6.17;;
15669;SDS011;18524;45.190;5.732;2022-10-17T21:01:11;7.47;;;6.20;;
15669;SDS011;18524;45.190;5.732;2022-10-17T21:06:01;7.67;;;5.90;;
15669;SDS011;18524;45.190;5.732;2022-10-17T21:10:52;10.00;;;5.63;;
15669;SDS011;18524;45.190;5.732;2022-10-17T21:15:42;9.17;;;5.73;;
15669;SDS011;18524;45.190;5.732;2022-10-17T21:20:33;9.17;;;6.03;;
15669;SDS011;18524;45.190;5.732;2022-10-17T21:25:23;8.17;;;6.20;;
15669;SDS011;18524;45.190;5.732;2022-10-17T21:30:13;8.83;;;6.87;;
15669;SDS011;18524;45.190;5.732;2022-10-17T21:35:04;8.93;;;6.33;;
15669;SDS011;18524;45.190;5.732;2022-10-17T21:39:55;8.80;;;6.13;;
15669;SDS011;18524;45.190;5.732;2022-10-17T21:44:45;7.97;;;6.47;;
15669;SDS011;18524;45.190;5.732;2022-10-17T21:49:35;8.07;;;6.40;;
15669;SDS011;18524;45.190;5.732;2022-10-17T21:54:27;7.33;;;6.07;;
15669;SDS011;18524;45.190;5.732;2022-10-17T21:59:17;10.43;;;7.13;;
15669;SDS011;18524;45.190;5.732;2022-10-17T22:04:15;7.43;;;6.73;;
15669;SDS011;18524;45.190;5.732;2022-10-17T22:09:11;9.20;;;6.97;;
15669;SDS011;18524;45.190;5.732;2022-10-17T22:14:12;7.33;;;6.17;;
15669;SDS011;18524;45.190;5.732;2022-10-17T22:19:05;10.80;;;7.00;;
15669;SDS011;18524;45.190;5.732;2022-10-17T22:24:00;8.80;;;6.10;;
15669;SDS011;18524;45.190;5.732;2022-10-17T22:28:52;9.37;;;6.97;;
15669;SDS011;18524;45.190;5.732;2022-10-17T22:33:43;8.53;;;6.67;;
15669;SDS011;18524;45.190;5.732;2022-10-17T22:38:33;11.73;;;7.60;;
15669;SDS011;18524;45.190;5.732;2022-10-17T22:43:24;7.77;;;7.00;;
15669;SDS011;18524;45.190;5.732;2022-10-17T22:48:14;11.03;;;7.43;;
15669;SDS011;18524;45.190;5.732;2022-10-17T22:53:05;8.50;;;7.17;;
15669;SDS011;18524;45.190;5.732;2022-10-17T22:57:55;9.37;;;7.33;;
15669;SDS011;18524;45.190;5.732;2022-10-17T23:02:45;8.87;;;7.07;;
15669;SDS011;18524;45.190;5.732;2022-10-17T23:07:36;8.83;;;6.80;;
15669;SDS011;18524;45.190;5.732;2022-10-17T23:12:26;9.27;;;6.03;;
15669;SDS011;18524;45.190;5.732;2022-10-17T23:17:17;7.83;;;6.33;;
15669;SDS011;18524;45.190;5.732;2022-10-17T23:22:07;7.90;;;5.87;;
15669;SDS011;18524;45.190;5.732;2022-10-17T23:26:58;6.80;;;6.10;;
15669;SDS011;18524;45.190;5.732;2022-10-17T23:31:52;7.43;;;6.07;;
15669;SDS011;18524;45.190;5.732;2022-10-17T23:36:43;7.50;;;6.17;;
15669;SDS011;18524;45.190;5.732;2022-10-17T23:41:34;8.53;;;7.23;;
15669;SDS011;18524;45.190;5.732;2022-10-17T23:46:24;8.73;;;7.83;;
15669;SDS011;18524;45.190;5.732;2022-10-17T23:51:15;9.37;;;8.13;;
15669;SDS011;18524;45.190;5.732;2022-10-17T23:56:06;8.40;;;7.60;;
